sensor_id;sensor_type;location;lat;lon;timestamp;temperature;humidity
27266;DHT22;14766;51.380;13.762;2023-03-19T00:00:34;13.20;44.60
27266;DHT22;14766;51.380;13.762;2023-03-19T00:03:01;13.20;44.60
27266;DHT22;14766;51.380;13.762;2023-03-19T00:05:28;13.20;44.60
27266;DHT22;14766;51.380;13.762;2023-03-19T00:07:59;13.20;44.60
27266;DHT22;14766;51.380;13.762;2023-03-19T00:10:26;13.10;44.60
27266;DHT22;14766;51.380;13.762;2023-03-19T00:12:53;13.10;44.70
27266;DHT22;14766;51.380;13.762;2023-03-19T00:15:20;13.10;44.70
27266;DHT22;14766;51.380;13.762;2023-03-19T00:17:48;13.10;44.60
27266;DHT22;14766;51.380;13.762;2023-03-19T00:20:16;13.10;44.70
27266;DHT22;14766;51.380;13.762;2023-03-19T00:22:45;13.10;44.70
27266;DHT22;14766;51.380;13.762;2023-03-19T00:25:12;13.10;44.80
27266;DHT22;14766;51.380;13.762;2023-03-19T00:27:40;13.10;44.80
27266;DHT22;14766;51.380;13.762;2023-03-19T00:30:08;13.10;45.00
27266;DHT22;14766;51.380;13.762;2023-03-19T00:32:35;13.10;44.90
27266;DHT22;14766;51.380;13.762;2023-03-19T00:35:04;13.10;44.90
27266;DHT22;14766;51.380;13.762;2023-03-19T00:37:35;13.10;45.00
27266;DHT22;14766;51.380;13.762;2023-03-19T00:40:03;13.10;45.10
27266;DHT22;14766;51.380;13.762;2023-03-19T00:42:33;13.10;45.10
27266;DHT22;14766;51.380;13.762;2023-03-19T00:45:03;13.00;45.10
27266;DHT22;14766;51.380;13.762;2023-03-19T00:47:32;13.00;45.10
27266;DHT22;14766;51.380;13.762;2023-03-19T00:49:59;13.00;45.10
27266;DHT22;14766;51.380;13.762;2023-03-19T00:52:27;13.00;45.10
27266;DHT22;14766;51.380;13.762;2023-03-19T00:54:55;13.00;45.10
27266;DHT22;14766;51.380;13.762;2023-03-19T00:57:25;13.00;45.00
27266;DHT22;14766;51.380;13.762;2023-03-19T00:59:53;13.00;45.00
27266;DHT22;14766;51.380;13.762;2023-03-19T01:02:20;13.00;45.00
27266;DHT22;14766;51.380;13.762;2023-03-19T01:04:47;13.00;45.10
27266;DHT22;14766;51.380;13.762;2023-03-19T01:07:15;13.00;45.10
27266;DHT22;14766;51.380;13.762;2023-03-19T01:09:42;13.00;45.10
27266;DHT22;14766;51.380;13.762;2023-03-19T01:12:10;13.00;45.20
27266;DHT22;14766;51.380;13.762;2023-03-19T01:14:38;13.00;45.20
27266;DHT22;14766;51.380;13.762;2023-03-19T01:17:07;13.00;45.20
27266;DHT22;14766;51.380;13.762;2023-03-19T01:19:37;13.00;45.20
27266;DHT22;14766;51.380;13.762;2023-03-19T01:22:04;13.00;45.30
27266;DHT22;14766;51.380;13.762;2023-03-19T01:24:33;12.90;45.20
27266;DHT22;14766;51.380;13.762;2023-03-19T01:27:00;12.90;45.20
27266;DHT22;14766;51.380;13.762;2023-03-19T01:29:35;13.00;45.30
27266;DHT22;14766;51.380;13.762;2023-03-19T01:32:15;13.00;45.30
27266;DHT22;14766;51.380;13.762;2023-03-19T01:34:58;12.90;45.40
27266;DHT22;14766;51.380;13.762;2023-03-19T01:37:25;13.00;45.40
27266;DHT22;14766;51.380;13.762;2023-03-19T01:39:53;13.00;45.40
27266;DHT22;14766;51.380;13.762;2023-03-19T01:42:20;12.90;45.40
27266;DHT22;14766;51.380;13.762;2023-03-19T01:44:55;12.90;45.40
27266;DHT22;14766;51.380;13.762;2023-03-19T01:47:34;12.90;45.40
27266;DHT22;14766;51.380;13.762;2023-03-19T01:50:30;12.90;45.30
27266;DHT22;14766;51.380;13.762;2023-03-19T01:53:17;13.00;45.40
27266;DHT22;14766;51.380;13.762;2023-03-19T01:55:58;13.00;45.30
27266;DHT22;14766;51.380;13.762;2023-03-19T01:58:56;13.00;45.30
27266;DHT22;14766;51.380;13.762;2023-03-19T02:05:13;12.90;45.20
27266;DHT22;14766;51.380;13.762;2023-03-19T02:07:43;13.00;45.20
27266;DHT22;14766;51.380;13.762;2023-03-19T02:10:16;13.00;45.20
27266;DHT22;14766;51.380;13.762;2023-03-19T02:12:44;13.00;45.20
27266;DHT22;14766;51.380;13.762;2023-03-19T02:15:13;13.00;45.10
27266;DHT22;14766;51.380;13.762;2023-03-19T02:17:41;13.00;45.00
27266;DHT22;14766;51.380;13.762;2023-03-19T02:21:09;13.00;45.10
27266;DHT22;14766;51.380;13.762;2023-03-19T02:26:37;13.00;45.00
27266;DHT22;14766;51.380;13.762;2023-03-19T02:29:05;13.00;45.00
27266;DHT22;14766;51.380;13.762;2023-03-19T02:31:35;13.00;45.00
27266;DHT22;14766;51.380;13.762;2023-03-19T02:34:05;13.00;45.00
27266;DHT22;14766;51.380;13.762;2023-03-19T02:36:41;13.00;45.10
27266;DHT22;14766;51.380;13.762;2023-03-19T02:39:21;13.00;45.10
27266;DHT22;14766;51.380;13.762;2023-03-19T02:41:51;12.90;45.10
27266;DHT22;14766;51.380;13.762;2023-03-19T02:44:19;12.90;45.20
27266;DHT22;14766;51.380;13.762;2023-03-19T02:46:49;12.90;45.30
27266;DHT22;14766;51.380;13.762;2023-03-19T02:49:17;13.00;45.30
27266;DHT22;14766;51.380;13.762;2023-03-19T02:51:49;12.90;45.30
27266;DHT22;14766;51.380;13.762;2023-03-19T02:54:17;13.00;45.30
27266;DHT22;14766;51.380;13.762;2023-03-19T02:56:46;12.90;45.20
27266;DHT22;14766;51.380;13.762;2023-03-19T02:59:13;13.00;45.10
27266;DHT22;14766;51.380;13.762;2023-03-19T03:01:40;13.00;45.10
27266;DHT22;14766;51.380;13.762;2023-03-19T03:04:07;13.00;45.10
27266;DHT22;14766;51.380;13.762;2023-03-19T03:06:35;13.00;45.10
27266;DHT22;14766;51.380;13.762;2023-03-19T03:09:02;13.00;45.00
27266;DHT22;14766;51.380;13.762;2023-03-19T03:11:29;13.00;45.00
27266;DHT22;14766;51.380;13.762;2023-03-19T03:13:59;13.00;45.00
27266;DHT22;14766;51.380;13.762;2023-03-19T03:16:26;13.00;44.90
27266;DHT22;14766;51.380;13.762;2023-03-19T03:18:54;13.00;44.90
27266;DHT22;14766;51.380;13.762;2023-03-19T03:21:21;13.00;44.90
27266;DHT22;14766;51.380;13.762;2023-03-19T03:23:48;12.90;44.90
27266;DHT22;14766;51.380;13.762;2023-03-19T03:26:16;12.90;45.00
27266;DHT22;14766;51.380;13.762;2023-03-19T03:28:43;12.80;45.10
27266;DHT22;14766;51.380;13.762;2023-03-19T03:31:10;12.80;45.20
27266;DHT22;14766;51.380;13.762;2023-03-19T03:33:38;12.70;45.30
27266;DHT22;14766;51.380;13.762;2023-03-19T03:36:08;12.70;45.50
27266;DHT22;14766;51.380;13.762;2023-03-19T03:38:35;12.70;45.50
27266;DHT22;14766;51.380;13.762;2023-03-19T03:41:03;12.70;45.50
27266;DHT22;14766;51.380;13.762;2023-03-19T03:43:30;12.60;45.50
27266;DHT22;14766;51.380;13.762;2023-03-19T03:46:26;12.60;45.60
27266;DHT22;14766;51.380;13.762;2023-03-19T03:48:55;12.60;45.80
27266;DHT22;14766;51.380;13.762;2023-03-19T03:51:23;12.60;45.90
27266;DHT22;14766;51.380;13.762;2023-03-19T03:53:50;12.50;46.00
27266;DHT22;14766;51.380;13.762;2023-03-19T03:56:17;12.50;46.00
27266;DHT22;14766;51.380;13.762;2023-03-19T03:58:44;12.50;46.20
27266;DHT22;14766;51.380;13.762;2023-03-19T04:01:15;12.40;46.20
27266;DHT22;14766;51.380;13.762;2023-03-19T04:03:46;12.40;46.20
27266;DHT22;14766;51.380;13.762;2023-03-19T04:06:15;12.40;46.30
27266;DHT22;14766;51.380;13.762;2023-03-19T04:08:44;12.30;46.30
27266;DHT22;14766;51.380;13.762;2023-03-19T04:11:11;12.30;46.40
27266;DHT22;14766;51.380;13.762;2023-03-19T04:13:39;12.30;46.40
27266;DHT22;14766;51.380;13.762;2023-03-19T04:16:08;12.30;46.50
27266;DHT22;14766;51.380;13.762;2023-03-19T04:18:37;12.30;46.50
27266;DHT22;14766;51.380;13.762;2023-03-19T04:21:06;12.30;46.50
27266;DHT22;14766;51.380;13.762;2023-03-19T04:23:33;12.30;46.50
27266;DHT22;14766;51.380;13.762;2023-03-19T04:26:04;12.30;46.60
27266;DHT22;14766;51.380;13.762;2023-03-19T04:28:35;12.30;46.60
27266;DHT22;14766;51.380;13.762;2023-03-19T04:31:05;12.20;46.60
27266;DHT22;14766;51.380;13.762;2023-03-19T04:33:36;12.20;46.60
27266;DHT22;14766;51.380;13.762;2023-03-19T04:36:03;12.20;46.60
27266;DHT22;14766;51.380;13.762;2023-03-19T04:38:30;12.20;46.50
27266;DHT22;14766;51.380;13.762;2023-03-19T04:40:58;12.30;46.60
27266;DHT22;14766;51.380;13.762;2023-03-19T04:43:25;12.30;46.60
27266;DHT22;14766;51.380;13.762;2023-03-19T04:45:53;12.30;46.70
27266;DHT22;14766;51.380;13.762;2023-03-19T04:48:21;12.30;46.60
27266;DHT22;14766;51.380;13.762;2023-03-19T04:50:51;12.30;46.70
27266;DHT22;14766;51.380;13.762;2023-03-19T04:53:19;12.30;46.70
27266;DHT22;14766;51.380;13.762;2023-03-19T04:55:47;12.30;46.60
27266;DHT22;14766;51.380;13.762;2023-03-19T04:58:19;12.30;46.50
27266;DHT22;14766;51.380;13.762;2023-03-19T05:00:58;12.30;46.50
27266;DHT22;14766;51.380;13.762;2023-03-19T05:03:48;12.40;46.50
27266;DHT22;14766;51.380;13.762;2023-03-19T05:06:17;12.40;46.40
27266;DHT22;14766;51.380;13.762;2023-03-19T05:08:46;12.40;46.40
27266;DHT22;14766;51.380;13.762;2023-03-19T05:11:13;12.40;46.30
27266;DHT22;14766;51.380;13.762;2023-03-19T05:13:55;12.40;46.30
27266;DHT22;14766;51.380;13.762;2023-03-19T05:16:22;12.40;46.20
27266;DHT22;14766;51.380;13.762;2023-03-19T05:18:49;12.40;46.10
27266;DHT22;14766;51.380;13.762;2023-03-19T05:21:17;12.40;46.10
27266;DHT22;14766;51.380;13.762;2023-03-19T05:23:46;12.40;45.90
27266;DHT22;14766;51.380;13.762;2023-03-19T05:26:18;12.40;46.00
27266;DHT22;14766;51.380;13.762;2023-03-19T05:29:04;12.30;46.00
27266;DHT22;14766;51.380;13.762;2023-03-19T05:31:40;12.30;45.90
27266;DHT22;14766;51.380;13.762;2023-03-19T05:34:08;12.30;46.00
27266;DHT22;14766;51.380;13.762;2023-03-19T05:36:35;12.30;45.90
27266;DHT22;14766;51.380;13.762;2023-03-19T05:39:11;12.20;45.80
27266;DHT22;14766;51.380;13.762;2023-03-19T05:41:45;12.30;45.90
27266;DHT22;14766;51.380;13.762;2023-03-19T05:44:17;12.30;45.90
27266;DHT22;14766;51.380;13.762;2023-03-19T05:47:13;12.30;46.00
27266;DHT22;14766;51.380;13.762;2023-03-19T05:49:46;12.30;46.10
27266;DHT22;14766;51.380;13.762;2023-03-19T05:52:14;12.20;45.90
27266;DHT22;14766;51.380;13.762;2023-03-19T05:54:42;12.20;45.90
27266;DHT22;14766;51.380;13.762;2023-03-19T05:57:23;12.20;45.90
27266;DHT22;14766;51.380;13.762;2023-03-19T06:00:17;12.20;45.90
27266;DHT22;14766;51.380;13.762;2023-03-19T06:02:47;12.30;46.00
27266;DHT22;14766;51.380;13.762;2023-03-19T06:05:31;12.20;45.90
27266;DHT22;14766;51.380;13.762;2023-03-19T06:08:33;12.30;46.00
27266;DHT22;14766;51.380;13.762;2023-03-19T06:11:12;12.30;45.90
27266;DHT22;14766;51.380;13.762;2023-03-19T06:13:40;12.40;46.00
27266;DHT22;14766;51.380;13.762;2023-03-19T06:16:13;12.40;45.90
27266;DHT22;14766;51.380;13.762;2023-03-19T06:18:46;12.40;45.80
27266;DHT22;14766;51.380;13.762;2023-03-19T06:21:15;12.50;45.80
27266;DHT22;14766;51.380;13.762;2023-03-19T06:23:43;12.50;45.60
27266;DHT22;14766;51.380;13.762;2023-03-19T06:26:16;12.50;45.50
27266;DHT22;14766;51.380;13.762;2023-03-19T06:28:51;12.50;46.00
27266;DHT22;14766;51.380;13.762;2023-03-19T06:31:19;12.60;45.50
27266;DHT22;14766;51.380;13.762;2023-03-19T06:33:53;12.70;46.40
27266;DHT22;14766;51.380;13.762;2023-03-19T06:36:24;12.70;45.60
27266;DHT22;14766;51.380;13.762;2023-03-19T06:38:53;12.80;45.60
27266;DHT22;14766;51.380;13.762;2023-03-19T06:41:20;13.00;45.80
27266;DHT22;14766;51.380;13.762;2023-03-19T06:43:49;13.10;45.70
27266;DHT22;14766;51.380;13.762;2023-03-19T06:46:16;13.20;45.60
27266;DHT22;14766;51.380;13.762;2023-03-19T06:48:43;13.40;45.70
27266;DHT22;14766;51.380;13.762;2023-03-19T06:51:10;13.60;45.90
27266;DHT22;14766;51.380;13.762;2023-03-19T06:53:37;13.90;46.00
27266;DHT22;14766;51.380;13.762;2023-03-19T06:56:05;14.20;46.00
27266;DHT22;14766;51.380;13.762;2023-03-19T06:58:32;14.60;46.00
27266;DHT22;14766;51.380;13.762;2023-03-19T07:01:01;15.00;45.30
27266;DHT22;14766;51.380;13.762;2023-03-19T07:03:29;15.50;44.60
27266;DHT22;14766;51.380;13.762;2023-03-19T07:05:56;16.00;44.10
27266;DHT22;14766;51.380;13.762;2023-03-19T07:08:23;16.60;43.40
27266;DHT22;14766;51.380;13.762;2023-03-19T07:10:55;17.10;42.80
27266;DHT22;14766;51.380;13.762;2023-03-19T07:13:24;17.70;40.00
27266;DHT22;14766;51.380;13.762;2023-03-19T07:15:51;18.10;38.40
27266;DHT22;14766;51.380;13.762;2023-03-19T07:18:18;18.50;37.10
27266;DHT22;14766;51.380;13.762;2023-03-19T07:20:46;18.80;37.50
27266;DHT22;14766;51.380;13.762;2023-03-19T07:23:13;19.10;36.30
27266;DHT22;14766;51.380;13.762;2023-03-19T07:25:41;19.20;35.00
27266;DHT22;14766;51.380;13.762;2023-03-19T07:28:10;19.30;34.40
27266;DHT22;14766;51.380;13.762;2023-03-19T07:30:37;19.30;34.10
27266;DHT22;14766;51.380;13.762;2023-03-19T07:33:05;19.20;33.90
27266;DHT22;14766;51.380;13.762;2023-03-19T07:35:33;19.00;33.70
27266;DHT22;14766;51.380;13.762;2023-03-19T07:38:00;18.80;33.60
27266;DHT22;14766;51.380;13.762;2023-03-19T07:40:28;18.50;34.00
27266;DHT22;14766;51.380;13.762;2023-03-19T07:42:56;18.30;34.50
27266;DHT22;14766;51.380;13.762;2023-03-19T07:45:24;18.10;35.00
27266;DHT22;14766;51.380;13.762;2023-03-19T07:47:51;17.90;35.50
27266;DHT22;14766;51.380;13.762;2023-03-19T07:50:18;17.80;35.70
27266;DHT22;14766;51.380;13.762;2023-03-19T07:52:46;17.70;35.70
27266;DHT22;14766;51.380;13.762;2023-03-19T07:55:14;17.60;35.70
27266;DHT22;14766;51.380;13.762;2023-03-19T07:57:41;17.60;35.80
27266;DHT22;14766;51.380;13.762;2023-03-19T08:00:09;17.60;35.70
27266;DHT22;14766;51.380;13.762;2023-03-19T08:02:39;17.60;36.40
27266;DHT22;14766;51.380;13.762;2023-03-19T08:05:10;17.70;36.40
27266;DHT22;14766;51.380;13.762;2023-03-19T08:07:38;17.80;36.30
27266;DHT22;14766;51.380;13.762;2023-03-19T08:10:05;17.90;36.20
27266;DHT22;14766;51.380;13.762;2023-03-19T08:12:33;17.90;36.40
27266;DHT22;14766;51.380;13.762;2023-03-19T08:15:08;18.00;36.20
27266;DHT22;14766;51.380;13.762;2023-03-19T08:17:36;18.00;35.70
27266;DHT22;14766;51.380;13.762;2023-03-19T08:20:09;18.00;35.90
27266;DHT22;14766;51.380;13.762;2023-03-19T08:22:38;18.10;36.30
27266;DHT22;14766;51.380;13.762;2023-03-19T08:25:06;18.20;36.70
27266;DHT22;14766;51.380;13.762;2023-03-19T08:27:34;18.40;37.00
27266;DHT22;14766;51.380;13.762;2023-03-19T08:30:03;18.60;36.60
27266;DHT22;14766;51.380;13.762;2023-03-19T08:32:30;18.80;36.20
27266;DHT22;14766;51.380;13.762;2023-03-19T08:34:58;19.00;36.70
27266;DHT22;14766;51.380;13.762;2023-03-19T08:37:25;19.20;35.90
27266;DHT22;14766;51.380;13.762;2023-03-19T08:39:52;19.40;35.10
27266;DHT22;14766;51.380;13.762;2023-03-19T08:42:19;19.50;34.50
27266;DHT22;14766;51.380;13.762;2023-03-19T08:44:47;19.60;34.70
27266;DHT22;14766;51.380;13.762;2023-03-19T08:47:15;19.60;34.30
27266;DHT22;14766;51.380;13.762;2023-03-19T08:49:42;19.70;34.30
27266;DHT22;14766;51.380;13.762;2023-03-19T08:52:10;19.80;34.50
27266;DHT22;14766;51.380;13.762;2023-03-19T08:54:37;20.00;34.40
27266;DHT22;14766;51.380;13.762;2023-03-19T08:57:04;20.10;33.70
27266;DHT22;14766;51.380;13.762;2023-03-19T08:59:31;20.10;33.40
27266;DHT22;14766;51.380;13.762;2023-03-19T09:02:00;20.20;33.70
27266;DHT22;14766;51.380;13.762;2023-03-19T09:04:28;20.30;33.50
27266;DHT22;14766;51.380;13.762;2023-03-19T09:06:55;20.40;33.50
27266;DHT22;14766;51.380;13.762;2023-03-19T09:09:23;20.50;33.10
27266;DHT22;14766;51.380;13.762;2023-03-19T09:11:50;20.60;33.00
27266;DHT22;14766;51.380;13.762;2023-03-19T09:14:17;20.70;33.40
27266;DHT22;14766;51.380;13.762;2023-03-19T09:16:46;20.80;33.40
27266;DHT22;14766;51.380;13.762;2023-03-19T09:19:14;20.90;33.80
27266;DHT22;14766;51.380;13.762;2023-03-19T09:21:41;20.90;32.70
27266;DHT22;14766;51.380;13.762;2023-03-19T09:24:08;21.00;32.90
27266;DHT22;14766;51.380;13.762;2023-03-19T09:26:36;21.10;32.80
27266;DHT22;14766;51.380;13.762;2023-03-19T09:29:03;21.10;32.50
27266;DHT22;14766;51.380;13.762;2023-03-19T09:31:30;21.10;32.40
27266;DHT22;14766;51.380;13.762;2023-03-19T09:33:57;21.20;32.40
27266;DHT22;14766;51.380;13.762;2023-03-19T09:36:25;21.20;32.40
27266;DHT22;14766;51.380;13.762;2023-03-19T09:38:54;21.30;32.60
27266;DHT22;14766;51.380;13.762;2023-03-19T09:41:38;21.40;32.50
27266;DHT22;14766;51.380;13.762;2023-03-19T09:44:18;21.40;32.40
27266;DHT22;14766;51.380;13.762;2023-03-19T09:46:56;21.50;32.40
27266;DHT22;14766;51.380;13.762;2023-03-19T09:49:37;21.50;32.20
27266;DHT22;14766;51.380;13.762;2023-03-19T09:54:45;21.70;32.20
27266;DHT22;14766;51.380;13.762;2023-03-19T09:57:14;21.70;31.90
27266;DHT22;14766;51.380;13.762;2023-03-19T09:59:43;21.80;32.00
27266;DHT22;14766;51.380;13.762;2023-03-19T10:02:37;21.90;31.90
27266;DHT22;14766;51.380;13.762;2023-03-19T10:05:26;21.90;31.60
27266;DHT22;14766;51.380;13.762;2023-03-19T10:11:04;22.10;31.40
27266;DHT22;14766;51.380;13.762;2023-03-19T10:16:13;22.10;31.60
27266;DHT22;14766;51.380;13.762;2023-03-19T10:18:47;22.10;31.70
27266;DHT22;14766;51.380;13.762;2023-03-19T10:21:40;22.10;31.70
27266;DHT22;14766;51.380;13.762;2023-03-19T10:26:44;22.30;32.10
27266;DHT22;14766;51.380;13.762;2023-03-19T10:29:18;22.40;31.80
27266;DHT22;14766;51.380;13.762;2023-03-19T10:37:17;22.50;30.90
27266;DHT22;14766;51.380;13.762;2023-03-19T10:39:49;22.40;31.00
27266;DHT22;14766;51.380;13.762;2023-03-19T10:45:30;22.30;31.60
27266;DHT22;14766;51.380;13.762;2023-03-19T10:47:59;22.20;32.00
27266;DHT22;14766;51.380;13.762;2023-03-19T10:56:25;21.90;31.90
27266;DHT22;14766;51.380;13.762;2023-03-19T10:59:04;21.80;32.20
27266;DHT22;14766;51.380;13.762;2023-03-19T11:01:38;21.70;32.20
27266;DHT22;14766;51.380;13.762;2023-03-19T11:04:18;21.70;32.60
27266;DHT22;14766;51.380;13.762;2023-03-19T11:06:48;21.60;32.90
27266;DHT22;14766;51.380;13.762;2023-03-19T11:09:40;21.60;33.00
27266;DHT22;14766;51.380;13.762;2023-03-19T11:12:25;21.50;33.10
27266;DHT22;14766;51.380;13.762;2023-03-19T11:14:57;21.50;33.20
27266;DHT22;14766;51.380;13.762;2023-03-19T11:20:31;21.50;33.30
27266;DHT22;14766;51.380;13.762;2023-03-19T11:23:00;21.50;33.50
27266;DHT22;14766;51.380;13.762;2023-03-19T11:25:39;21.50;33.70
27266;DHT22;14766;51.380;13.762;2023-03-19T11:28:13;21.50;33.60
27266;DHT22;14766;51.380;13.762;2023-03-19T11:39:31;21.80;34.50
27266;DHT22;14766;51.380;13.762;2023-03-19T11:45:45;21.90;33.50
27266;DHT22;14766;51.380;13.762;2023-03-19T11:53:46;22.00;33.40
27266;DHT22;14766;51.380;13.762;2023-03-19T11:59:29;22.00;33.40
27266;DHT22;14766;51.380;13.762;2023-03-19T12:02:13;22.00;33.20
27266;DHT22;14766;51.380;13.762;2023-03-19T12:05:04;22.00;33.30
27266;DHT22;14766;51.380;13.762;2023-03-19T12:10:33;22.00;33.70
27266;DHT22;14766;51.380;13.762;2023-03-19T12:21:08;21.90;33.60
27266;DHT22;14766;51.380;13.762;2023-03-19T12:24:31;21.90;33.80
27266;DHT22;14766;51.380;13.762;2023-03-19T12:30:16;21.90;33.70
27266;DHT22;14766;51.380;13.762;2023-03-19T12:35:30;21.90;33.60
27266;DHT22;14766;51.380;13.762;2023-03-19T12:38:23;21.80;33.70
27266;DHT22;14766;51.380;13.762;2023-03-19T12:46:06;21.80;34.60
27266;DHT22;14766;51.380;13.762;2023-03-19T12:48:41;21.80;34.50
27266;DHT22;14766;51.380;13.762;2023-03-19T12:51:12;21.80;34.10
27266;DHT22;14766;51.380;13.762;2023-03-19T12:53:50;21.90;34.20
27266;DHT22;14766;51.380;13.762;2023-03-19T12:56:28;21.90;34.10
27266;DHT22;14766;51.380;13.762;2023-03-19T13:01:48;21.80;34.40
27266;DHT22;14766;51.380;13.762;2023-03-19T13:04:29;21.70;34.50
27266;DHT22;14766;51.380;13.762;2023-03-19T13:08:03;21.70;34.70
27266;DHT22;14766;51.380;13.762;2023-03-19T13:10:13;21.70;34.90
27266;DHT22;14766;51.380;13.762;2023-03-19T13:12:47;21.70;34.80
27266;DHT22;14766;51.380;13.762;2023-03-19T13:23:33;21.70;35.60
27266;DHT22;14766;51.380;13.762;2023-03-19T13:26:02;21.70;35.40
27266;DHT22;14766;51.380;13.762;2023-03-19T13:28:35;21.70;35.40
27266;DHT22;14766;51.380;13.762;2023-03-19T13:31:05;21.70;35.60
27266;DHT22;14766;51.380;13.762;2023-03-19T13:33:34;21.70;36.40
27266;DHT22;14766;51.380;13.762;2023-03-19T13:36:06;21.70;36.70
27266;DHT22;14766;51.380;13.762;2023-03-19T13:38:48;21.70;37.30
27266;DHT22;14766;51.380;13.762;2023-03-19T13:46:48;21.50;37.80
27266;DHT22;14766;51.380;13.762;2023-03-19T13:54:44;21.20;38.80
27266;DHT22;14766;51.380;13.762;2023-03-19T13:59:48;21.00;39.10
27266;DHT22;14766;51.380;13.762;2023-03-19T14:05:02;20.90;39.80
27266;DHT22;14766;51.380;13.762;2023-03-19T14:07:34;20.80;40.30
27266;DHT22;14766;51.380;13.762;2023-03-19T14:10:24;20.80;40.40
27266;DHT22;14766;51.380;13.762;2023-03-19T14:13:08;20.70;40.40
27266;DHT22;14766;51.380;13.762;2023-03-19T14:15:48;20.60;40.70
27266;DHT22;14766;51.380;13.762;2023-03-19T14:18:19;20.60;40.90
27266;DHT22;14766;51.380;13.762;2023-03-19T14:21:03;20.50;41.10
27266;DHT22;14766;51.380;13.762;2023-03-19T14:23:39;20.50;41.50
27266;DHT22;14766;51.380;13.762;2023-03-19T14:28:52;20.40;41.60
27266;DHT22;14766;51.380;13.762;2023-03-19T14:31:39;20.40;41.50
27266;DHT22;14766;51.380;13.762;2023-03-19T14:39:32;20.40;41.60
27266;DHT22;14766;51.380;13.762;2023-03-19T14:45:24;20.40;41.90
27266;DHT22;14766;51.380;13.762;2023-03-19T14:48:05;20.40;41.90
27266;DHT22;14766;51.380;13.762;2023-03-19T14:53:40;20.40;42.10
27266;DHT22;14766;51.380;13.762;2023-03-19T14:56:22;20.50;42.70
27266;DHT22;14766;51.380;13.762;2023-03-19T14:58:55;20.40;42.50
27266;DHT22;14766;51.380;13.762;2023-03-19T15:01:24;20.40;43.20
27266;DHT22;14766;51.380;13.762;2023-03-19T15:03:59;20.30;42.60
27266;DHT22;14766;51.380;13.762;2023-03-19T15:06:40;20.30;42.80
27266;DHT22;14766;51.380;13.762;2023-03-19T15:09:21;20.30;42.80
27266;DHT22;14766;51.380;13.762;2023-03-19T15:12:25;20.30;42.80
27266;DHT22;14766;51.380;13.762;2023-03-19T15:17:29;20.20;42.70
27266;DHT22;14766;51.380;13.762;2023-03-19T15:20:01;20.20;42.80
27266;DHT22;14766;51.380;13.762;2023-03-19T15:22:31;20.10;42.70
27266;DHT22;14766;51.380;13.762;2023-03-19T15:25:08;20.10;42.80
27266;DHT22;14766;51.380;13.762;2023-03-19T15:27:35;20.10;43.00
27266;DHT22;14766;51.380;13.762;2023-03-19T15:30:19;20.10;43.10
27266;DHT22;14766;51.380;13.762;2023-03-19T15:32:48;20.10;43.30
27266;DHT22;14766;51.380;13.762;2023-03-19T15:35:34;20.00;43.00
27266;DHT22;14766;51.380;13.762;2023-03-19T15:38:08;20.00;43.10
27266;DHT22;14766;51.380;13.762;2023-03-19T15:40:36;20.00;43.40
27266;DHT22;14766;51.380;13.762;2023-03-19T15:43:04;20.00;43.30
27266;DHT22;14766;51.380;13.762;2023-03-19T15:45:34;19.90;43.40
27266;DHT22;14766;51.380;13.762;2023-03-19T15:48:10;19.90;43.30
27266;DHT22;14766;51.380;13.762;2023-03-19T15:50:43;19.90;44.00
27266;DHT22;14766;51.380;13.762;2023-03-19T15:53:20;19.80;45.30
27266;DHT22;14766;51.380;13.762;2023-03-19T15:55:50;19.80;46.80
27266;DHT22;14766;51.380;13.762;2023-03-19T15:58:24;19.70;47.10
27266;DHT22;14766;51.380;13.762;2023-03-19T16:00:53;19.70;47.70
27266;DHT22;14766;51.380;13.762;2023-03-19T16:03:36;19.60;48.80
27266;DHT22;14766;51.380;13.762;2023-03-19T16:06:51;19.50;49.30
27266;DHT22;14766;51.380;13.762;2023-03-19T16:08:55;19.40;49.60
27266;DHT22;14766;51.380;13.762;2023-03-19T16:11:34;19.30;50.30
27266;DHT22;14766;51.380;13.762;2023-03-19T16:14:22;19.10;50.60
27266;DHT22;14766;51.380;13.762;2023-03-19T16:16:57;19.00;51.00
27266;DHT22;14766;51.380;13.762;2023-03-19T16:19:49;18.90;50.80
27266;DHT22;14766;51.380;13.762;2023-03-19T16:22:36;18.80;51.40
27266;DHT22;14766;51.380;13.762;2023-03-19T16:25:03;18.80;51.80
27266;DHT22;14766;51.380;13.762;2023-03-19T16:27:38;18.70;52.20
27266;DHT22;14766;51.380;13.762;2023-03-19T16:30:25;18.60;52.30
27266;DHT22;14766;51.380;13.762;2023-03-19T16:33:00;18.50;52.80
27266;DHT22;14766;51.380;13.762;2023-03-19T16:35:28;18.40;53.50
27266;DHT22;14766;51.380;13.762;2023-03-19T16:40:47;18.20;54.20
27266;DHT22;14766;51.380;13.762;2023-03-19T16:43:17;18.10;53.60
27266;DHT22;14766;51.380;13.762;2023-03-19T16:45:50;18.10;54.40
27266;DHT22;14766;51.380;13.762;2023-03-19T16:48:18;18.00;54.60
27266;DHT22;14766;51.380;13.762;2023-03-19T16:50:47;18.00;54.70
27266;DHT22;14766;51.380;13.762;2023-03-19T16:53:25;17.90;54.60
27266;DHT22;14766;51.380;13.762;2023-03-19T16:55:55;17.80;55.10
27266;DHT22;14766;51.380;13.762;2023-03-19T16:58:31;17.80;54.80
27266;DHT22;14766;51.380;13.762;2023-03-19T17:01:01;17.70;55.10
27266;DHT22;14766;51.380;13.762;2023-03-19T17:03:29;17.70;55.00
27266;DHT22;14766;51.380;13.762;2023-03-19T17:05:58;17.60;55.80
27266;DHT22;14766;51.380;13.762;2023-03-19T17:08:26;17.60;55.70
27266;DHT22;14766;51.380;13.762;2023-03-19T17:10:54;17.50;55.80
27266;DHT22;14766;51.380;13.762;2023-03-19T17:13:25;17.50;56.00
27266;DHT22;14766;51.380;13.762;2023-03-19T17:15:59;17.40;55.80
27266;DHT22;14766;51.380;13.762;2023-03-19T17:18:31;17.40;55.90
27266;DHT22;14766;51.380;13.762;2023-03-19T17:23:36;17.30;56.10
27266;DHT22;14766;51.380;13.762;2023-03-19T17:26:16;17.30;56.50
27266;DHT22;14766;51.380;13.762;2023-03-19T17:28:46;17.30;56.50
27266;DHT22;14766;51.380;13.762;2023-03-19T17:31:39;17.20;56.30
27266;DHT22;14766;51.380;13.762;2023-03-19T17:34:13;17.20;56.50
27266;DHT22;14766;51.380;13.762;2023-03-19T17:36:45;17.20;56.30
27266;DHT22;14766;51.380;13.762;2023-03-19T17:39:13;17.20;55.90
27266;DHT22;14766;51.380;13.762;2023-03-19T17:41:40;17.20;56.00
27266;DHT22;14766;51.380;13.762;2023-03-19T17:44:07;17.10;55.80
27266;DHT22;14766;51.380;13.762;2023-03-19T17:46:40;17.20;55.80
27266;DHT22;14766;51.380;13.762;2023-03-19T17:51:45;17.10;55.90
27266;DHT22;14766;51.380;13.762;2023-03-19T17:54:13;17.10;55.90
27266;DHT22;14766;51.380;13.762;2023-03-19T17:56:40;17.10;55.80